createdAt,value
2022-12-08T00:00:03.848Z,7.30
2022-12-08T00:03:15.936Z,9.25
2022-12-08T00:07:02.559Z,13.38
2022-12-08T00:10:39.621Z,21.40
2022-12-08T00:13:32.876Z,31.38
2022-12-08T00:16:37.204Z,53.60
2022-12-08T00:19:42.775Z,48.00
2022-12-08T00:22:47.379Z,54.10
2022-12-08T00:25:51.758Z,58.95
2022-12-08T00:28:56.023Z,55.92
2022-12-08T00:32:00.341Z,16.27
2022-12-08T00:35:05.294Z,16.58
2022-12-08T00:38:09.986Z,8.27
2022-12-08T00:41:17.236Z,8.02
2022-12-08T00:44:22.374Z,7.93
2022-12-08T00:47:26.881Z,7.80
2022-12-08T00:50:31.096Z,7.82
2022-12-08T00:53:35.432Z,10.65
2022-12-08T00:56:39.868Z,49.95
2022-12-08T00:59:44.188Z,12.70
2022-12-08T01:02:48.771Z,16.77
2022-12-08T01:05:53.138Z,20.42
2022-12-08T01:08:57.415Z,17.55
2022-12-08T01:12:02.179Z,17.50
2022-12-08T01:15:07.057Z,17.88
2022-12-08T01:18:11.520Z,23.95
2022-12-08T01:21:16.091Z,21.10
2022-12-08T01:24:22.325Z,27.40
2022-12-08T01:27:26.713Z,27.35
2022-12-08T01:30:31.195Z,37.47
2022-12-08T01:33:35.574Z,40.47
2022-12-08T01:36:40.332Z,41.83
2022-12-08T01:39:44.864Z,40.88
2022-12-08T01:42:50.229Z,32.35
2022-12-08T01:49:10.096Z,22.23
2022-12-08T01:52:34.920Z,48.85
2022-12-08T01:56:11.060Z,16.20
2022-12-08T01:59:15.491Z,17.55
2022-12-08T02:02:20.070Z,18.73
2022-12-08T02:05:28.125Z,25.33
2022-12-08T02:08:34.343Z,16.00
2022-12-08T02:11:38.476Z,16.60
2022-12-08T02:14:42.861Z,17.85
2022-12-08T02:18:20.951Z,22.85
2022-12-08T02:21:38.296Z,21.85
2022-12-08T02:24:45.459Z,18.08
2022-12-08T02:28:01.945Z,13.82
2022-12-08T02:31:18.604Z,8.43
2022-12-08T02:34:38.704Z,7.88
2022-12-08T02:37:47.844Z,11.38
2022-12-08T02:41:29.089Z,8.73
2022-12-08T02:44:47.067Z,10.45
2022-12-08T02:47:52.860Z,8.85
2022-12-08T02:54:03.178Z,8.88
2022-12-08T02:57:28.007Z,7.65
2022-12-08T03:00:46.516Z,6.97
2022-12-08T03:04:02.847Z,5.65
2022-12-08T03:07:23.907Z,5.60
2022-12-08T03:10:37.697Z,7.05
2022-12-08T03:13:46.255Z,5.97
2022-12-08T03:16:54.984Z,7.07
2022-12-08T03:20:04.651Z,6.90
2022-12-08T03:23:13.412Z,6.00
2022-12-08T03:26:40.274Z,5.25
2022-12-08T03:29:45.054Z,6.70
2022-12-08T03:33:18.619Z,6.22
2022-12-08T03:36:24.321Z,5.80
2022-12-08T03:39:28.708Z,9.73
2022-12-08T03:42:33.201Z,6.55
2022-12-08T03:45:37.643Z,5.10
2022-12-08T03:48:41.942Z,5.82
2022-12-08T03:51:46.629Z,4.50
2022-12-08T03:54:51.091Z,36.63
2022-12-08T03:57:55.419Z,6.10
2022-12-08T04:00:59.907Z,4.57
2022-12-08T04:04:04.249Z,4.38
2022-12-08T04:07:08.751Z,5.88
2022-12-08T04:10:13.942Z,6.78
2022-12-08T04:13:18.274Z,5.80
2022-12-08T04:16:25.565Z,8.25
2022-12-08T04:19:30.103Z,8.52
2022-12-08T04:22:34.515Z,10.23
2022-12-08T04:25:39.633Z,10.23
2022-12-08T04:28:44.336Z,7.65
2022-12-08T04:31:48.942Z,5.53
2022-12-08T04:34:53.192Z,5.38
2022-12-08T04:37:57.757Z,7.28
2022-12-08T04:41:02.695Z,8.50
2022-12-08T04:44:07.093Z,7.25
2022-12-08T04:47:11.436Z,6.75
2022-12-08T04:50:15.935Z,5.20
2022-12-08T04:53:20.914Z,4.47
2022-12-08T04:56:25.101Z,6.35
2022-12-08T04:59:29.381Z,5.65
2022-12-08T05:02:33.788Z,7.07
2022-12-08T05:05:38.400Z,10.68
2022-12-08T05:08:44.164Z,6.37
2022-12-08T05:14:53.989Z,5.60
2022-12-08T05:17:58.389Z,5.35
2022-12-08T05:21:05.039Z,4.68
2022-12-08T05:24:09.964Z,5.20
2022-12-08T05:27:14.459Z,5.68
2022-12-08T05:30:18.838Z,6.47
2022-12-08T05:33:23.129Z,8.95
2022-12-08T05:36:27.623Z,7.95
2022-12-08T05:39:32.202Z,7.38
2022-12-08T05:42:36.666Z,7.13
2022-12-08T05:45:42.380Z,8.20
2022-12-08T05:48:47.120Z,5.78
2022-12-08T05:51:51.867Z,6.75
2022-12-08T05:54:56.188Z,6.03
2022-12-08T05:58:06.109Z,4.95
2022-12-08T06:01:26.525Z,8.05
2022-12-08T06:04:30.786Z,5.80
2022-12-08T06:07:36.224Z,6.55
2022-12-08T06:10:44.915Z,6.65
2022-12-08T06:13:49.883Z,6.68
2022-12-08T06:16:54.580Z,8.93
2022-12-08T06:19:58.949Z,6.57
2022-12-08T06:23:04.331Z,7.90
2022-12-08T06:29:15.143Z,9.43
2022-12-08T06:32:24.367Z,7.65
2022-12-08T06:35:31.655Z,7.80
2022-12-08T06:38:39.298Z,6.53
2022-12-08T06:42:05.865Z,7.40
2022-12-08T06:45:11.089Z,9.82
2022-12-08T06:48:15.483Z,8.60
2022-12-08T06:51:23.717Z,7.93
2022-12-08T06:54:28.603Z,8.77
2022-12-08T06:57:32.822Z,31.63
2022-12-08T07:00:37.151Z,41.25
2022-12-08T07:03:44.421Z,16.27
2022-12-08T07:06:49.028Z,14.07
2022-12-08T07:09:53.437Z,9.73
2022-12-08T07:12:58.054Z,9.50
2022-12-08T07:16:02.394Z,10.93
2022-12-08T07:19:07.562Z,12.05
2022-12-08T07:22:12.258Z,11.88
2022-12-08T07:25:16.839Z,16.08
2022-12-08T07:28:21.102Z,10.52
2022-12-08T07:31:27.617Z,11.38
2022-12-08T07:34:31.776Z,9.88
2022-12-08T07:37:38.553Z,13.77
2022-12-08T07:40:43.045Z,27.35
2022-12-08T07:43:47.786Z,25.80
2022-12-08T07:46:52.837Z,29.58
2022-12-08T07:49:57.288Z,18.83
2022-12-08T07:53:01.836Z,15.20
2022-12-08T07:56:08.461Z,12.05
2022-12-08T07:59:13.262Z,12.98
2022-12-08T08:02:26.920Z,15.30
2022-12-08T08:05:31.577Z,11.45
2022-12-08T08:08:36.034Z,8.90
2022-12-08T08:11:40.655Z,8.63
2022-12-08T08:14:44.989Z,16.52
2022-12-08T08:17:52.568Z,11.77
2022-12-08T08:20:58.043Z,7.70
2022-12-08T08:27:06.899Z,7.78
2022-12-08T08:30:19.613Z,9.23
2022-12-08T08:33:24.789Z,10.30
2022-12-08T08:36:29.842Z,10.70
2022-12-08T08:39:34.174Z,10.18
2022-12-08T08:42:38.739Z,15.00
2022-12-08T08:45:43.028Z,25.23
2022-12-08T08:48:47.952Z,29.55
2022-12-08T08:51:52.404Z,27.40
2022-12-08T08:54:57.095Z,13.93
2022-12-08T08:58:02.757Z,12.98
2022-12-08T09:01:07.502Z,18.83
2022-12-08T09:04:12.164Z,23.23
2022-12-08T09:07:17.367Z,18.73
2022-12-08T09:10:21.635Z,20.75
2022-12-08T09:13:26.120Z,23.10
2022-12-08T09:16:30.871Z,22.67
2022-12-08T09:19:37.177Z,14.30
2022-12-08T09:22:41.832Z,24.02
2022-12-08T09:25:47.149Z,27.60
2022-12-08T09:28:52.017Z,21.15
2022-12-08T09:31:58.444Z,20.77
2022-12-08T09:35:03.231Z,19.98
2022-12-08T09:38:07.796Z,24.48
2022-12-08T09:41:36.461Z,20.20
2022-12-08T09:44:58.234Z,21.70
2022-12-08T09:48:24.779Z,39.22
2022-12-08T09:51:36.789Z,29.03
2022-12-08T09:54:41.492Z,13.23
2022-12-08T09:57:47.700Z,19.03
2022-12-08T10:00:54.111Z,22.70
2022-12-08T10:03:59.962Z,25.35
2022-12-08T10:07:16.932Z,21.52
2022-12-08T10:10:36.846Z,20.25
2022-12-08T10:14:23.739Z,16.15
2022-12-08T10:17:36.988Z,17.20
2022-12-08T10:20:48.227Z,16.75
2022-12-08T10:24:03.500Z,15.77
2022-12-08T10:27:13.407Z,14.77
2022-12-08T10:30:20.189Z,42.05
2022-12-08T10:33:28.638Z,27.80
2022-12-08T10:36:53.124Z,31.50
2022-12-08T10:40:02.996Z,29.38
2022-12-08T10:43:16.975Z,41.28
2022-12-08T10:46:29.429Z,42.92
2022-12-08T10:49:37.728Z,49.50
2022-12-08T10:52:42.924Z,69.85
2022-12-08T10:56:07.531Z,135.30
2022-12-08T10:59:18.651Z,53.00
2022-12-08T11:02:23.587Z,42.03
2022-12-08T11:05:38.523Z,50.40
2022-12-08T11:08:57.581Z,45.97
2022-12-08T11:12:10.298Z,56.53
2022-12-08T11:15:19.363Z,54.83
2022-12-08T11:18:30.897Z,52.25
2022-12-08T11:21:38.781Z,52.25
2022-12-08T11:24:44.531Z,61.53
2022-12-08T11:27:54.890Z,77.05
2022-12-08T11:31:10.374Z,47.30
2022-12-08T11:34:24.980Z,26.88
2022-12-08T11:37:43.888Z,24.40
2022-12-08T11:40:49.289Z,14.05
2022-12-08T11:47:55.824Z,12.20
2022-12-08T11:54:33.217Z,11.70
2022-12-08T11:57:37.624Z,15.07
2022-12-08T12:00:44.580Z,14.83
2022-12-08T12:04:02.418Z,17.33
2022-12-08T12:07:27.992Z,30.10
2022-12-08T12:10:58.407Z,28.00
2022-12-08T12:14:15.452Z,26.42
2022-12-08T12:17:32.526Z,26.23
2022-12-08T12:20:51.123Z,18.38
2022-12-08T12:24:05.690Z,23.98
2022-12-08T12:27:34.025Z,19.77
2022-12-08T12:31:13.331Z,18.83
2022-12-08T12:34:34.618Z,24.23
2022-12-08T12:37:43.266Z,24.70
2022-12-08T12:40:47.795Z,39.67
2022-12-08T12:44:25.300Z,40.95
2022-12-08T12:47:57.275Z,83.07
2022-12-08T12:51:01.728Z,102.05
2022-12-08T12:54:22.793Z,51.40
2022-12-08T12:57:38.657Z,98.85
2022-12-08T13:00:43.016Z,109.57
2022-12-08T13:04:11.360Z,123.78
2022-12-08T13:07:27.573Z,143.20
2022-12-08T13:10:49.551Z,151.65
2022-12-08T13:13:59.679Z,162.15
2022-12-08T13:17:09.424Z,153.43
2022-12-08T13:20:24.049Z,251.40
2022-12-08T13:23:50.785Z,303.83
2022-12-08T13:27:07.613Z,144.70
2022-12-08T13:30:43.414Z,94.80
2022-12-08T13:33:48.642Z,144.93
2022-12-08T13:40:06.765Z,107.80
2022-12-08T13:43:44.634Z,84.70
2022-12-08T13:57:51.645Z,48.55
2022-12-08T14:01:06.731Z,42.70
2022-12-08T14:04:42.588Z,43.38
2022-12-08T14:07:49.526Z,38.83
2022-12-08T14:10:59.999Z,22.08
2022-12-08T14:14:13.038Z,16.10
2022-12-08T14:17:23.477Z,17.52
2022-12-08T14:20:46.351Z,12.10
2022-12-08T14:24:03.088Z,18.98
2022-12-08T14:27:11.212Z,22.73
2022-12-08T14:30:15.865Z,10.85
2022-12-08T14:33:20.712Z,11.57
2022-12-08T14:36:25.690Z,26.50
2022-12-08T14:39:30.012Z,226.77
2022-12-08T14:43:09.625Z,33.58
2022-12-08T14:46:24.323Z,27.35
2022-12-08T14:49:36.982Z,51.22
2022-12-08T14:52:45.730Z,27.00
2022-12-08T14:55:50.661Z,58.67
2022-12-08T14:59:19.305Z,17.05
2022-12-08T15:02:32.323Z,22.25
2022-12-08T15:05:40.239Z,18.70
2022-12-08T15:08:57.131Z,22.25
2022-12-08T15:12:06.371Z,22.00
2022-12-08T15:15:10.819Z,24.30
2022-12-08T15:18:19.600Z,25.70
2022-12-08T15:21:32.105Z,24.00
2022-12-08T15:24:36.656Z,48.33
2022-12-08T15:27:49.777Z,36.50
2022-12-08T15:30:58.033Z,43.90
2022-12-08T15:34:02.936Z,66.18
2022-12-08T15:37:21.277Z,53.40
2022-12-08T15:40:28.067Z,28.95
2022-12-08T15:43:33.571Z,26.63
2022-12-08T15:46:37.815Z,19.08
2022-12-08T15:49:42.744Z,18.85
2022-12-08T15:52:47.384Z,13.38
2022-12-08T15:59:22.183Z,66.97
2022-12-08T16:02:34.284Z,14.50
2022-12-08T16:06:20.493Z,15.32
2022-12-08T16:09:18.257Z,15.88
2022-12-08T16:16:12.475Z,20.63
2022-12-08T16:19:16.952Z,22.05
2022-12-08T16:26:16.748Z,25.55
2022-12-08T16:29:21.507Z,25.38
2022-12-08T16:32:27.067Z,85.32
2022-12-08T16:35:32.350Z,84.05
2022-12-08T16:41:59.448Z,31.90
2022-12-08T16:45:25.084Z,32.47
2022-12-08T16:48:29.805Z,21.98
2022-12-08T16:51:33.907Z,41.45
2022-12-08T16:54:38.358Z,28.17
2022-12-08T16:57:43.775Z,23.15
2022-12-08T17:00:48.294Z,20.02
2022-12-08T17:04:22.383Z,10.38
2022-12-08T17:07:17.135Z,19.15
2022-12-08T17:10:24.683Z,12.02
2022-12-08T17:13:28.951Z,16.92
2022-12-08T17:16:33.355Z,18.27
2022-12-08T17:19:37.744Z,16.38
2022-12-08T17:22:42.415Z,11.30
2022-12-08T17:25:46.815Z,26.27
2022-12-08T17:29:00.697Z,16.88
2022-12-08T17:32:06.030Z,14.32
2022-12-08T17:35:11.272Z,15.05
2022-12-08T17:38:15.921Z,20.90
2022-12-08T17:41:20.105Z,16.42
2022-12-08T17:44:24.773Z,16.58
2022-12-08T17:47:29.083Z,13.00
2022-12-08T17:50:33.475Z,13.60
2022-12-08T17:53:38.064Z,13.00
2022-12-08T17:56:42.325Z,14.20
2022-12-08T17:59:46.833Z,19.42
2022-12-08T18:02:51.492Z,20.25
2022-12-08T18:05:56.103Z,16.25
2022-12-08T18:09:02.124Z,16.10
2022-12-08T18:12:06.702Z,13.75
2022-12-08T18:15:16.305Z,19.27
2022-12-08T18:18:21.096Z,14.07
2022-12-08T18:21:25.399Z,12.02
2022-12-08T18:24:30.276Z,6.40
2022-12-08T18:27:39.920Z,10.10
2022-12-08T18:30:47.352Z,16.17
2022-12-08T18:33:53.121Z,13.77
2022-12-08T18:36:57.531Z,7.35
2022-12-08T18:40:02.192Z,9.40
2022-12-08T18:43:07.321Z,8.85
2022-12-08T18:46:14.353Z,8.65
2022-12-08T18:49:22.398Z,10.45
2022-12-08T18:52:32.302Z,6.63
2022-12-08T18:55:38.975Z,8.15
2022-12-08T18:58:43.389Z,13.20
2022-12-08T19:01:47.600Z,9.35
2022-12-08T19:04:52.120Z,10.25
2022-12-08T19:07:56.772Z,9.40
2022-12-08T19:11:01.946Z,6.25
2022-12-08T19:14:06.661Z,9.82
2022-12-08T19:17:10.970Z,6.15
2022-12-08T19:20:15.944Z,4.43
2022-12-08T19:23:20.115Z,7.18
2022-12-08T19:26:24.383Z,6.43
2022-12-08T19:29:28.945Z,14.00
2022-12-08T19:32:33.239Z,17.17
2022-12-08T19:35:37.918Z,12.23
2022-12-08T19:39:01.284Z,11.05
2022-12-08T19:42:32.600Z,6.28
2022-12-08T19:45:37.590Z,6.50
2022-12-08T19:48:42.191Z,7.47
2022-12-08T19:51:46.451Z,8.30
2022-12-08T19:54:51.032Z,8.38
2022-12-08T19:57:55.691Z,6.47
2022-12-08T20:01:00.079Z,5.68
2022-12-08T20:04:04.687Z,5.88
2022-12-08T20:07:09.115Z,5.82
2022-12-08T20:10:19.976Z,3.90
2022-12-08T20:13:42.612Z,4.93
2022-12-08T20:16:47.276Z,5.70
2022-12-08T20:19:51.918Z,7.75
2022-12-08T20:22:56.027Z,7.20
2022-12-08T20:26:00.400Z,8.73
2022-12-08T20:29:05.201Z,25.63
2022-12-08T20:32:09.494Z,15.57
2022-12-08T20:35:14.107Z,9.90
2022-12-08T20:38:18.378Z,8.98
2022-12-08T20:41:27.267Z,6.60
2022-12-08T20:44:31.934Z,6.03
2022-12-08T20:47:37.973Z,11.20
2022-12-08T20:50:42.688Z,15.32
2022-12-08T20:53:47.665Z,22.38
2022-12-08T20:56:52.088Z,12.13
2022-12-08T20:59:56.710Z,7.72
2022-12-08T21:03:03.336Z,9.88
2022-12-08T21:06:08.385Z,9.90
2022-12-08T21:12:17.303Z,19.05
2022-12-08T21:15:22.228Z,25.40
2022-12-08T21:18:27.047Z,41.97
2022-12-08T21:24:35.752Z,15.07
2022-12-08T21:27:40.631Z,17.92
2022-12-08T21:30:45.328Z,20.50
2022-12-08T21:36:54.742Z,8.60
2022-12-08T21:39:59.040Z,22.17
2022-12-08T21:43:06.973Z,21.63
2022-12-08T21:46:22.392Z,13.48
2022-12-08T21:49:27.196Z,14.38
2022-12-08T21:52:31.934Z,23.20
2022-12-08T21:55:36.578Z,18.88
2022-12-08T21:58:41.238Z,17.05
2022-12-08T22:01:45.950Z,24.65
2022-12-08T22:04:50.738Z,24.88
2022-12-08T22:10:59.615Z,26.98
2022-12-08T22:14:04.688Z,26.02
2022-12-08T22:17:10.892Z,32.08
2022-12-08T22:20:17.296Z,23.58
2022-12-08T22:23:22.208Z,24.02
2022-12-08T22:26:26.775Z,8.57
2022-12-08T22:29:31.171Z,23.13
2022-12-08T22:32:35.617Z,21.75
2022-12-08T22:35:40.167Z,20.70
2022-12-08T22:38:44.801Z,21.73
2022-12-08T22:41:49.279Z,28.50
2022-12-08T22:44:53.358Z,26.30
2022-12-08T22:47:57.586Z,31.17
2022-12-08T22:51:02.574Z,31.70
2022-12-08T22:54:07.160Z,22.55
2022-12-08T22:57:12.082Z,29.13
2022-12-08T23:03:20.769Z,19.83
2022-12-08T23:06:27.042Z,20.63
2022-12-08T23:09:31.884Z,20.10
2022-12-08T23:12:36.162Z,26.40
2022-12-08T23:15:42.092Z,23.23
2022-12-08T23:18:47.464Z,25.48
2022-12-08T23:21:51.683Z,24.42
2022-12-08T23:24:56.165Z,16.25
2022-12-08T23:28:00.771Z,13.43
2022-12-08T23:31:09.511Z,16.38
2022-12-08T23:34:13.940Z,12.27
2022-12-08T23:37:18.535Z,25.65
2022-12-08T23:40:22.901Z,24.83
2022-12-08T23:43:27.560Z,26.35
2022-12-08T23:46:32.033Z,54.88
2022-12-08T23:49:36.249Z,31.88
2022-12-08T23:52:40.749Z,41.33
2022-12-08T23:55:45.103Z,27.40
2022-12-08T23:58:49.649Z,30.92
